createdAt,value
2019-03-02T00:00:56.691Z,0.00
2019-03-02T00:01:54.722Z,0.00
2019-03-02T00:02:56.780Z,0.00
2019-03-02T00:03:54.672Z,0.00
2019-03-02T00:04:54.646Z,0.00
2019-03-02T00:05:56.962Z,0.00
2019-03-02T00:06:54.595Z,0.00
2019-03-02T00:07:54.571Z,0.00
2019-03-02T00:08:56.684Z,0.00
2019-03-02T00:09:54.540Z,0.00
2019-03-02T00:10:54.499Z,0.00
2019-03-02T00:11:56.483Z,0.00
2019-03-02T00:12:54.441Z,0.00
2019-03-02T00:13:54.416Z,0.00
2019-03-02T00:14:55.070Z,0.00
2019-03-02T00:15:54.365Z,0.00
2019-03-02T00:16:54.341Z,0.00
2019-03-02T00:17:55.129Z,0.00
2019-03-02T00:18:54.293Z,0.00
2019-03-02T00:19:54.278Z,0.00
2019-03-02T00:20:55.729Z,0.00
2019-03-02T00:21:54.223Z,0.00
2019-03-02T00:22:54.196Z,0.00
2019-03-02T00:23:55.243Z,0.00
2019-03-02T00:24:57.739Z,0.00
2019-03-02T00:25:54.114Z,0.00
2019-03-02T00:26:54.090Z,0.00
2019-03-02T00:27:57.824Z,0.00
2019-03-02T00:28:54.039Z,0.00
2019-03-02T00:29:54.012Z,0.00
2019-03-02T00:30:54.860Z,0.00
2019-03-02T00:31:53.960Z,0.00
2019-03-02T00:32:53.935Z,0.00
2019-03-02T00:33:56.673Z,0.00
2019-03-02T00:34:53.889Z,0.00
2019-03-02T00:35:53.859Z,0.00
2019-03-02T00:36:55.237Z,0.00
2019-03-02T00:37:53.817Z,0.00
2019-03-02T00:38:53.785Z,0.00
2019-03-02T00:39:54.528Z,0.00
2019-03-02T00:40:53.734Z,0.00
2019-03-02T00:41:53.709Z,0.00
2019-03-02T00:42:53.684Z,0.00
2019-03-02T00:43:53.657Z,0.00
2019-03-02T00:44:53.632Z,0.00
2019-03-02T00:45:53.607Z,0.00
2019-03-02T00:46:56.373Z,0.00
2019-03-02T00:47:53.555Z,0.00
2019-03-02T00:48:53.542Z,0.00
2019-03-02T00:49:53.505Z,0.00
2019-03-02T00:50:53.485Z,0.00
2019-03-02T00:51:53.455Z,0.00
2019-03-02T00:52:55.665Z,0.00
2019-03-02T00:53:53.407Z,0.00
2019-03-02T00:54:58.227Z,0.00
2019-03-02T00:55:53.355Z,0.00
2019-03-02T00:56:53.330Z,0.00
2019-03-02T00:57:53.697Z,0.00
2019-03-02T00:58:53.284Z,0.00
2019-03-02T00:59:53.255Z,0.00
2019-03-02T01:00:53.597Z,0.00
2019-03-02T01:01:53.202Z,0.00
2019-03-02T01:02:53.181Z,0.00
2019-03-02T01:03:53.151Z,0.00
2019-03-02T01:04:53.129Z,0.00
2019-03-02T01:05:53.105Z,0.00
2019-03-02T01:06:53.079Z,0.00
2019-03-02T01:07:55.951Z,0.00
2019-03-02T01:08:53.028Z,0.00
2019-03-02T01:09:53.003Z,0.00
2019-03-02T01:10:54.800Z,0.00
2019-03-02T01:11:52.951Z,0.00
2019-03-02T01:12:52.928Z,0.00
2019-03-02T01:13:53.745Z,0.00
2019-03-02T01:14:52.877Z,0.00
2019-03-02T01:15:52.854Z,0.00
2019-03-02T01:16:55.246Z,0.00
2019-03-02T01:17:52.802Z,0.00
2019-03-02T01:18:52.780Z,0.00
2019-03-02T01:19:53.889Z,0.00
2019-03-02T01:20:52.728Z,0.00
2019-03-02T01:21:52.702Z,0.00
2019-03-02T01:22:52.822Z,0.00
2019-03-02T01:23:52.651Z,0.00
2019-03-02T01:24:52.629Z,0.00
2019-03-02T01:25:52.602Z,0.00
2019-03-02T01:26:55.591Z,0.00
2019-03-02T01:27:52.555Z,0.00
2019-03-02T01:28:52.526Z,0.00
2019-03-02T01:29:54.671Z,0.00
2019-03-02T01:30:52.476Z,0.00
2019-03-02T01:31:52.459Z,0.00
2019-03-02T01:32:53.501Z,0.00
2019-03-02T01:33:52.400Z,0.00
2019-03-02T01:34:52.394Z,0.00
2019-03-02T01:35:53.968Z,0.00
2019-03-02T01:36:52.329Z,0.00
2019-03-02T01:37:52.299Z,0.00
2019-03-02T01:38:53.932Z,0.00
2019-03-02T01:39:52.246Z,0.00
2019-03-02T01:40:52.222Z,0.00
2019-03-02T01:41:53.965Z,0.00
2019-03-02T01:42:52.171Z,0.00
2019-03-02T01:43:52.157Z,0.00
2019-03-02T01:44:52.582Z,0.00
2019-03-02T01:45:52.096Z,0.00
2019-03-02T01:46:52.071Z,0.00
2019-03-02T01:47:52.152Z,0.00
2019-03-02T01:48:52.048Z,0.00
2019-03-02T01:49:51.998Z,0.00
2019-03-02T01:50:51.982Z,0.00
2019-03-02T01:51:54.740Z,0.00
2019-03-02T01:52:51.927Z,0.00
2019-03-02T01:53:51.892Z,0.00
2019-03-02T01:54:52.480Z,0.00
2019-03-02T01:55:51.840Z,0.00
2019-03-02T01:56:51.815Z,0.00
2019-03-02T01:57:52.309Z,0.00
2019-03-02T01:58:51.764Z,0.00
2019-03-02T01:59:51.738Z,0.00
2019-03-02T02:00:51.712Z,0.00
2019-03-02T02:01:51.688Z,0.00
2019-03-02T02:02:51.662Z,0.00
2019-03-02T02:03:51.637Z,0.00
2019-03-02T02:04:54.519Z,0.00
2019-03-02T02:05:51.586Z,0.00
2019-03-02T02:06:51.562Z,0.00
2019-03-02T02:07:54.134Z,0.00
2019-03-02T02:08:51.510Z,0.00
2019-03-02T02:09:51.484Z,0.00
2019-03-02T02:10:51.458Z,0.00
2019-03-02T02:11:53.442Z,0.00
2019-03-02T02:12:51.413Z,0.00
2019-03-02T02:13:51.382Z,0.00
2019-03-02T02:14:54.458Z,0.00
2019-03-02T02:15:51.329Z,0.00
2019-03-02T02:16:51.304Z,0.00
2019-03-02T02:17:53.047Z,0.00
2019-03-02T02:18:51.253Z,0.00
2019-03-02T02:19:51.228Z,0.00
2019-03-02T02:20:51.650Z,0.00
2019-03-02T02:21:51.178Z,0.00
2019-03-02T02:22:51.157Z,0.00
2019-03-02T02:23:51.124Z,0.00
2019-03-02T02:24:51.100Z,0.00
2019-03-02T02:25:51.074Z,0.00
2019-03-02T02:26:51.049Z,0.00
2019-03-02T02:27:51.035Z,0.00
2019-03-02T02:28:51.019Z,0.00
2019-03-02T02:29:50.978Z,0.00
2019-03-02T02:30:50.947Z,0.00
2019-03-02T02:31:50.924Z,0.00
2019-03-02T02:32:50.896Z,0.00
2019-03-02T02:33:50.872Z,0.00
2019-03-02T02:34:50.846Z,0.00
2019-03-02T02:35:50.822Z,0.00
2019-03-02T02:36:53.058Z,0.00
2019-03-02T02:37:50.770Z,0.00
2019-03-02T02:38:54.553Z,0.00
2019-03-02T02:39:50.717Z,0.00
2019-03-02T02:40:50.691Z,0.00
2019-03-02T02:41:50.668Z,0.00
2019-03-02T02:42:50.657Z,0.00
2019-03-02T02:43:54.244Z,0.00
2019-03-02T02:44:50.589Z,0.00
2019-03-02T02:45:53.689Z,0.00
2019-03-02T02:46:50.538Z,0.00
2019-03-02T02:47:53.677Z,0.00
2019-03-02T02:48:50.487Z,0.00
2019-03-02T02:49:51.101Z,0.00
2019-03-02T02:50:50.437Z,0.00
2019-03-02T02:51:50.481Z,0.00
2019-03-02T02:52:50.390Z,0.00
2019-03-02T02:53:50.359Z,0.00
2019-03-02T02:54:50.336Z,0.00
2019-03-02T02:55:50.309Z,0.00
2019-03-02T02:56:54.219Z,0.00
2019-03-02T02:57:50.257Z,0.00
2019-03-02T02:58:55.355Z,0.00
2019-03-02T02:59:50.209Z,0.00
2019-03-02T03:00:55.229Z,0.00
2019-03-02T03:01:50.182Z,0.00
2019-03-02T03:02:50.150Z,0.00
2019-03-02T03:03:50.107Z,0.00
2019-03-02T03:04:50.075Z,0.00
2019-03-02T03:05:54.172Z,0.00
2019-03-02T03:06:50.027Z,0.00
2019-03-02T03:07:53.371Z,0.00
2019-03-02T03:08:49.975Z,0.00
2019-03-02T03:09:50.888Z,0.00
2019-03-02T03:10:49.924Z,0.00
2019-03-02T03:11:49.902Z,0.00
2019-03-02T03:12:49.872Z,0.00
2019-03-02T03:13:49.846Z,0.00
2019-03-02T03:14:54.337Z,0.00
2019-03-02T03:15:49.794Z,0.00
2019-03-02T03:16:54.043Z,0.00
2019-03-02T03:17:49.741Z,0.00
2019-03-02T03:18:52.126Z,0.00
2019-03-02T03:19:49.689Z,0.00
2019-03-02T03:20:50.763Z,0.00
2019-03-02T03:21:49.636Z,0.00
2019-03-02T03:22:49.620Z,0.00
2019-03-02T03:23:49.587Z,0.00
2019-03-02T03:24:49.560Z,0.00
2019-03-02T03:25:56.208Z,0.00
2019-03-02T03:26:49.510Z,0.00
2019-03-02T03:27:52.092Z,0.00
2019-03-02T03:28:49.458Z,0.00
2019-03-02T03:29:51.229Z,0.00
2019-03-02T03:30:49.409Z,0.00
2019-03-02T03:31:49.383Z,0.00
2019-03-02T03:32:56.083Z,0.00
2019-03-02T03:33:49.333Z,0.00
2019-03-02T03:34:49.306Z,0.00
2019-03-02T03:35:51.796Z,0.00
2019-03-02T03:36:49.254Z,0.00
2019-03-02T03:37:51.250Z,0.00
2019-03-02T03:38:49.204Z,0.00
2019-03-02T03:39:49.177Z,0.00
2019-03-02T03:40:49.160Z,0.00
2019-03-02T03:41:49.130Z,0.00
2019-03-02T03:42:49.104Z,0.00
2019-03-02T03:43:49.074Z,0.00
2019-03-02T03:44:49.049Z,0.00
2019-03-02T03:45:49.030Z,0.00
2019-03-02T03:46:49.003Z,0.00
2019-03-02T03:47:48.982Z,0.00
2019-03-02T03:48:51.246Z,0.00
2019-03-02T03:49:48.923Z,0.00
2019-03-02T03:50:52.465Z,0.00
2019-03-02T03:51:48.870Z,0.00
2019-03-02T03:52:50.394Z,0.00
2019-03-02T03:53:48.818Z,0.00
2019-03-02T03:54:48.792Z,0.00
2019-03-02T03:55:48.766Z,0.00
2019-03-02T03:56:48.754Z,0.00
2019-03-02T03:57:48.717Z,0.00
2019-03-02T03:58:48.688Z,0.00
2019-03-02T03:59:53.624Z,0.00
2019-03-02T04:00:48.643Z,0.00
2019-03-02T04:01:52.292Z,0.00
2019-03-02T04:02:48.593Z,0.00
2019-03-02T04:03:51.685Z,0.00
2019-03-02T04:04:48.540Z,0.00
2019-03-02T04:05:48.775Z,0.00
2019-03-02T04:06:48.483Z,0.00
2019-03-02T04:07:49.605Z,0.00
2019-03-02T04:08:48.436Z,0.00
2019-03-02T04:09:48.417Z,0.00
2019-03-02T04:10:48.385Z,0.00
2019-03-02T04:11:48.354Z,0.00
2019-03-02T04:12:48.329Z,0.00
2019-03-02T04:13:48.307Z,0.00
2019-03-02T04:14:48.278Z,0.00
2019-03-02T04:15:48.251Z,0.00
2019-03-02T04:16:48.225Z,0.00
2019-03-02T04:17:48.200Z,0.00
2019-03-02T04:18:50.273Z,0.00
2019-03-02T04:19:48.149Z,0.00
2019-03-02T04:20:49.648Z,0.00
2019-03-02T04:21:48.157Z,0.00
2019-03-02T04:22:48.071Z,0.00
2019-03-02T04:23:48.045Z,0.00
2019-03-02T04:24:48.029Z,0.00
2019-03-02T04:25:52.158Z,0.00
2019-03-02T04:26:47.968Z,0.00
2019-03-02T04:27:53.415Z,0.00
2019-03-02T04:28:47.914Z,0.00
2019-03-02T04:29:50.334Z,0.00
2019-03-02T04:30:47.862Z,0.00
2019-03-02T04:31:48.947Z,0.00
2019-03-02T04:32:47.813Z,0.00
2019-03-02T04:33:47.793Z,0.00
2019-03-02T04:34:47.761Z,0.00
2019-03-02T04:35:47.744Z,0.00
2019-03-02T04:36:49.144Z,0.00
2019-03-02T04:37:47.681Z,0.00
2019-03-02T04:38:47.660Z,0.00
2019-03-02T04:39:49.972Z,0.00
2019-03-02T04:40:47.604Z,0.00
2019-03-02T04:41:47.578Z,0.00
2019-03-02T04:42:50.115Z,0.00
2019-03-02T04:43:50.651Z,0.00
2019-03-02T04:44:47.500Z,0.00
2019-03-02T04:45:47.475Z,0.00
2019-03-02T04:46:50.796Z,0.00
2019-03-02T04:47:47.424Z,0.00
2019-03-02T04:48:47.398Z,0.00
2019-03-02T04:49:47.573Z,0.00
2019-03-02T04:50:47.346Z,0.00
2019-03-02T04:51:47.321Z,0.00
2019-03-02T04:52:50.025Z,0.00
2019-03-02T04:53:47.269Z,0.00
2019-03-02T04:54:47.244Z,0.00
2019-03-02T04:55:48.563Z,0.00
2019-03-02T04:56:47.195Z,0.00
2019-03-02T04:57:47.177Z,0.00
2019-03-02T04:58:47.826Z,0.00
2019-03-02T04:59:47.115Z,0.00
2019-03-02T05:00:47.091Z,0.00
2019-03-02T05:01:47.069Z,0.00
2019-03-02T05:02:47.040Z,0.00
2019-03-02T05:03:47.012Z,0.00
2019-03-02T05:04:46.988Z,0.00
2019-03-02T05:05:46.964Z,0.00
2019-03-02T05:06:46.938Z,0.00
2019-03-02T05:07:46.911Z,0.00
2019-03-02T05:08:46.885Z,0.00
2019-03-02T05:09:48.620Z,0.00
2019-03-02T05:10:46.836Z,0.00
2019-03-02T05:11:46.810Z,0.00
2019-03-02T05:12:49.712Z,0.00
2019-03-02T05:13:46.761Z,0.00
2019-03-02T05:14:46.733Z,0.00
2019-03-02T05:15:48.884Z,0.00
2019-03-02T05:16:46.680Z,0.00
2019-03-02T05:17:46.658Z,0.00
2019-03-02T05:18:49.757Z,0.00
2019-03-02T05:19:46.611Z,0.00
2019-03-02T05:20:46.582Z,0.00
2019-03-02T05:21:46.554Z,0.00
2019-03-02T05:22:46.534Z,0.00
2019-03-02T05:23:46.505Z,0.00
2019-03-02T05:24:46.477Z,0.00
2019-03-02T05:25:46.452Z,0.00
2019-03-02T05:26:46.436Z,0.00
2019-03-02T05:27:46.401Z,0.00
2019-03-02T05:28:46.380Z,0.00
2019-03-02T05:29:46.351Z,0.00
2019-03-02T05:30:46.325Z,0.00
2019-03-02T05:31:46.299Z,0.00
2019-03-02T05:32:47.662Z,0.00
2019-03-02T05:33:46.252Z,0.00
2019-03-02T05:34:46.233Z,0.00
2019-03-02T05:35:47.769Z,0.00
2019-03-02T05:36:46.171Z,0.00
2019-03-02T05:37:46.150Z,0.00
2019-03-02T05:38:46.123Z,0.00
2019-03-02T05:39:46.184Z,0.00
2019-03-02T05:40:46.071Z,0.00
2019-03-02T05:41:46.046Z,0.00
2019-03-02T05:42:51.576Z,0.00
2019-03-02T05:43:45.995Z,0.00
2019-03-02T05:44:45.981Z,0.00
2019-03-02T05:45:45.953Z,0.00
2019-03-02T05:46:45.917Z,0.00
2019-03-02T05:47:45.890Z,0.00
2019-03-02T05:48:45.864Z,0.00
2019-03-02T05:49:45.843Z,0.00
2019-03-02T05:50:45.821Z,0.00
2019-03-02T05:51:45.790Z,0.00
2019-03-02T05:52:45.765Z,0.00
2019-03-02T05:53:45.833Z,0.00
2019-03-02T05:54:45.713Z,0.00
2019-03-02T05:55:45.687Z,0.00
2019-03-02T05:56:45.660Z,0.00
2019-03-02T05:57:45.638Z,0.00
2019-03-02T05:58:47.734Z,0.00
2019-03-02T05:59:45.586Z,0.00
2019-03-02T06:00:45.581Z,0.00
2019-03-02T06:01:45.532Z,0.00
2019-03-02T06:02:45.510Z,0.00
2019-03-02T06:03:46.021Z,0.00
2019-03-02T06:04:45.907Z,0.00
2019-03-02T06:05:45.457Z,0.00
2019-03-02T06:06:45.409Z,0.00
2019-03-02T06:07:45.378Z,0.00
2019-03-02T06:08:45.352Z,0.00
2019-03-02T06:09:46.857Z,0.00
2019-03-02T06:10:45.302Z,0.00
2019-03-02T06:11:45.283Z,0.00
2019-03-02T06:12:47.889Z,0.00
2019-03-02T06:13:45.224Z,0.00
2019-03-02T06:14:45.199Z,0.00
2019-03-02T06:15:46.433Z,4.00
2019-03-02T06:16:45.149Z,4.00
2019-03-02T06:17:45.126Z,4.00
2019-03-02T06:18:45.356Z,4.00
2019-03-02T06:19:45.112Z,4.00
2019-03-02T06:20:45.059Z,4.00
2019-03-02T06:21:46.360Z,0.00
2019-03-02T06:22:45.007Z,0.00
2019-03-02T06:23:44.967Z,0.00
2019-03-02T06:24:44.944Z,4.00
2019-03-02T06:25:44.917Z,4.00
2019-03-02T06:26:44.891Z,4.00
2019-03-02T06:27:47.173Z,4.00
2019-03-02T06:28:44.843Z,4.00
2019-03-02T06:29:44.814Z,4.00
2019-03-02T06:30:45.037Z,4.00
2019-03-02T06:31:44.761Z,4.00
2019-03-02T06:32:44.739Z,4.00
2019-03-02T06:33:45.332Z,4.00
2019-03-02T06:34:44.685Z,4.00
2019-03-02T06:35:44.658Z,4.00
2019-03-02T06:36:44.989Z,4.00
2019-03-02T06:37:44.607Z,8.00
2019-03-02T06:38:44.584Z,4.00
2019-03-02T06:39:45.170Z,4.00
2019-03-02T06:40:44.530Z,4.00
2019-03-02T06:41:44.504Z,4.00
2019-03-02T06:42:45.809Z,8.00
2019-03-02T06:43:44.563Z,8.00
2019-03-02T06:44:44.438Z,8.00
2019-03-02T06:45:44.433Z,4.00
2019-03-02T06:46:44.378Z,8.00
2019-03-02T06:47:44.365Z,8.00
2019-03-02T06:48:45.207Z,8.00
2019-03-02T06:49:44.299Z,12.00
2019-03-02T06:50:44.281Z,12.00
2019-03-02T06:51:47.239Z,20.00
2019-03-02T06:52:44.245Z,24.00
2019-03-02T06:53:44.197Z,32.00
2019-03-02T06:54:44.964Z,32.00
2019-03-02T06:55:44.150Z,32.00
2019-03-02T06:56:44.120Z,32.00
2019-03-02T06:57:46.166Z,32.00
2019-03-02T06:58:44.070Z,32.00
2019-03-02T06:59:44.044Z,36.00
2019-03-02T07:00:45.680Z,40.00
2019-03-02T07:01:44.773Z,44.00
2019-03-02T07:02:43.969Z,48.00
2019-03-02T07:03:45.826Z,56.00
2019-03-02T07:04:43.922Z,56.00
2019-03-02T07:05:43.894Z,52.00
2019-03-02T07:06:46.915Z,56.00
2019-03-02T07:07:43.849Z,56.00
2019-03-02T07:08:43.829Z,56.00
2019-03-02T07:09:45.257Z,56.00
2019-03-02T07:10:43.768Z,56.00
2019-03-02T07:11:43.739Z,56.00
2019-03-02T07:12:45.591Z,64.00
2019-03-02T07:13:43.689Z,68.00
2019-03-02T07:14:43.698Z,68.00
2019-03-02T07:15:44.792Z,68.00
2019-03-02T07:16:43.612Z,68.00
2019-03-02T07:17:43.588Z,72.00
2019-03-02T07:18:43.584Z,64.00
2019-03-02T07:19:43.537Z,68.00
2019-03-02T07:20:43.513Z,76.00
2019-03-02T07:21:43.486Z,80.00
2019-03-02T07:22:43.464Z,84.00
2019-03-02T07:23:43.437Z,84.00
2019-03-02T07:24:43.413Z,80.00
2019-03-02T07:25:44.313Z,76.00
2019-03-02T07:26:43.361Z,72.00
2019-03-02T07:27:43.339Z,80.00
2019-03-02T07:28:43.318Z,84.00
2019-03-02T07:29:43.286Z,88.00
2019-03-02T07:30:43.260Z,88.00
2019-03-02T07:31:43.234Z,92.00
2019-03-02T07:32:43.210Z,88.00
2019-03-02T07:33:43.185Z,96.00
2019-03-02T07:34:43.746Z,96.00
2019-03-02T07:35:43.134Z,92.00
2019-03-02T07:36:43.115Z,92.00
2019-03-02T07:37:44.067Z,88.00
2019-03-02T07:38:43.060Z,84.00
2019-03-02T07:39:43.037Z,84.00
2019-03-02T07:40:45.440Z,84.00
2019-03-02T07:41:42.983Z,88.00
2019-03-02T07:42:42.968Z,84.00
2019-03-02T07:43:46.342Z,88.00
2019-03-02T07:44:42.937Z,92.00
2019-03-02T07:45:42.882Z,92.00
2019-03-02T07:46:44.117Z,96.00
2019-03-02T07:47:42.830Z,96.00
2019-03-02T07:48:42.805Z,96.00
2019-03-02T07:49:46.278Z,100.00
2019-03-02T07:50:42.755Z,100.00
2019-03-02T07:51:42.728Z,100.00
2019-03-02T07:52:42.704Z,108.00
2019-03-02T07:53:42.682Z,108.00
2019-03-02T07:54:43.331Z,108.00
2019-03-02T07:55:42.628Z,116.00
2019-03-02T07:56:42.602Z,108.00
2019-03-02T07:57:43.724Z,100.00
2019-03-02T07:58:42.554Z,100.00
2019-03-02T07:59:42.526Z,104.00
2019-03-02T08:00:42.514Z,104.00
2019-03-02T08:01:42.477Z,108.00
2019-03-02T08:02:42.455Z,116.00
2019-03-02T08:03:42.428Z,128.00
2019-03-02T08:04:42.402Z,128.00
2019-03-02T08:05:42.380Z,120.00
2019-03-02T08:06:42.352Z,116.00
2019-03-02T08:07:42.327Z,112.00
2019-03-02T08:08:42.303Z,112.00
2019-03-02T08:09:42.275Z,108.00
2019-03-02T08:10:42.251Z,116.00
2019-03-02T08:11:45.519Z,120.00
2019-03-02T08:12:42.202Z,120.00
2019-03-02T08:13:42.178Z,120.00
2019-03-02T08:14:44.507Z,116.00
2019-03-02T08:15:42.126Z,112.00
2019-03-02T08:16:42.111Z,112.00
2019-03-02T08:17:42.079Z,112.00
2019-03-02T08:18:42.052Z,116.00
2019-03-02T08:19:44.744Z,124.00
2019-03-02T08:20:42.002Z,128.00
2019-03-02T08:21:41.978Z,136.00
2019-03-02T08:22:42.804Z,144.00
2019-03-02T08:23:41.938Z,140.00
2019-03-02T08:24:43.764Z,128.00
2019-03-02T08:25:41.886Z,120.00
2019-03-02T08:26:41.854Z,116.00
2019-03-02T08:27:41.832Z,116.00
2019-03-02T08:28:42.141Z,116.00
2019-03-02T08:29:41.779Z,108.00
2019-03-02T08:30:41.761Z,108.00
2019-03-02T08:31:42.036Z,104.00
2019-03-02T08:32:41.709Z,112.00
2019-03-02T08:33:45.888Z,108.00
2019-03-02T08:34:42.792Z,108.00
2019-03-02T08:35:41.630Z,104.00
2019-03-02T08:36:41.606Z,100.00
2019-03-02T08:37:41.580Z,100.00
2019-03-02T08:38:41.557Z,100.00
2019-03-02T08:39:42.778Z,104.00
2019-03-02T08:40:41.508Z,100.00
2019-03-02T08:41:41.481Z,96.00
2019-03-02T08:42:41.456Z,92.00
2019-03-02T08:43:41.432Z,92.00
2019-03-02T08:44:41.407Z,88.00
2019-03-02T08:45:41.382Z,88.00
2019-03-02T08:46:41.358Z,88.00
2019-03-02T08:47:41.334Z,84.00
2019-03-02T08:48:41.308Z,84.00
2019-03-02T08:49:41.829Z,88.00
2019-03-02T08:50:41.258Z,88.00
2019-03-02T08:51:41.233Z,84.00
2019-03-02T08:52:41.208Z,88.00
2019-03-02T08:53:41.185Z,84.00
2019-03-02T08:54:41.159Z,84.00
2019-03-02T08:55:41.134Z,80.00
2019-03-02T08:56:43.908Z,88.00
2019-03-02T08:57:41.087Z,88.00
2019-03-02T08:58:41.060Z,88.00
2019-03-02T08:59:41.034Z,92.00
2019-03-02T09:00:42.268Z,92.00
2019-03-02T09:01:40.993Z,100.00
2019-03-02T09:02:40.964Z,100.00
2019-03-02T09:03:40.935Z,100.00
2019-03-02T09:04:40.912Z,108.00
2019-03-02T09:05:44.414Z,100.00
2019-03-02T09:06:40.865Z,96.00
2019-03-02T09:07:40.836Z,112.00
2019-03-02T09:08:40.815Z,112.00
2019-03-02T09:09:40.797Z,100.00
2019-03-02T09:10:40.763Z,108.00
2019-03-02T09:11:44.125Z,116.00
2019-03-02T09:12:40.712Z,96.00
2019-03-02T09:13:40.691Z,92.00
2019-03-02T09:14:40.672Z,96.00
2019-03-02T09:15:40.657Z,88.00
2019-03-02T09:16:41.737Z,104.00
2019-03-02T09:17:40.591Z,116.00
2019-03-02T09:18:45.446Z,104.00
2019-03-02T09:19:40.545Z,104.00
2019-03-02T09:20:40.515Z,104.00
2019-03-02T09:21:40.490Z,100.00
2019-03-02T09:22:40.465Z,104.00
2019-03-02T09:23:40.450Z,112.00
2019-03-02T09:24:40.416Z,116.00
2019-03-02T09:25:40.392Z,120.00
2019-03-02T09:26:40.374Z,112.00
2019-03-02T09:27:40.345Z,112.00
2019-03-02T09:28:40.345Z,120.00
2019-03-02T09:29:40.399Z,120.00
2019-03-02T09:30:40.382Z,128.00
2019-03-02T09:31:40.245Z,124.00
2019-03-02T09:32:40.219Z,120.00
2019-03-02T09:33:40.198Z,116.00
2019-03-02T09:34:41.327Z,116.00
2019-03-02T09:35:40.152Z,112.00
2019-03-02T09:36:40.163Z,108.00
2019-03-02T09:37:40.965Z,104.00
2019-03-02T09:38:40.081Z,108.00
2019-03-02T09:39:40.075Z,108.00
2019-03-02T09:40:40.025Z,104.00
2019-03-02T09:41:40.043Z,108.00
2019-03-02T09:42:41.181Z,124.00
2019-03-02T09:43:40.001Z,128.00
2019-03-02T09:44:40.072Z,124.00
2019-03-02T09:45:41.312Z,116.00
2019-03-02T09:46:39.947Z,112.00
2019-03-02T09:47:39.851Z,112.00
2019-03-02T09:48:39.823Z,116.00
2019-03-02T09:49:39.801Z,112.00
2019-03-02T09:50:39.803Z,112.00
2019-03-02T09:51:39.811Z,112.00
2019-03-02T09:52:40.723Z,116.00
2019-03-02T09:53:39.806Z,112.00
2019-03-02T09:54:39.714Z,112.00
2019-03-02T09:55:39.660Z,112.00
2019-03-02T09:56:39.739Z,104.00
2019-03-02T09:57:41.783Z,104.00
2019-03-02T09:58:39.668Z,104.00
2019-03-02T09:59:41.998Z,100.00
2019-03-02T10:00:39.564Z,108.00
2019-03-02T10:01:40.199Z,112.00
2019-03-02T10:02:39.509Z,112.00
2019-03-02T10:03:39.515Z,108.00
2019-03-02T10:04:40.105Z,104.00
2019-03-02T10:05:39.408Z,96.00
2019-03-02T10:06:39.418Z,96.00
2019-03-02T10:07:39.413Z,100.00
2019-03-02T10:08:39.380Z,104.00
2019-03-02T10:09:39.343Z,108.00
2019-03-02T10:10:39.281Z,112.00
2019-03-02T10:11:39.256Z,112.00
2019-03-02T10:12:39.235Z,116.00
2019-03-02T10:13:39.205Z,120.00
2019-03-02T10:14:39.181Z,120.00
2019-03-02T10:15:39.153Z,116.00
2019-03-02T10:16:39.135Z,112.00
2019-03-02T10:17:39.835Z,120.00
2019-03-02T10:18:39.157Z,124.00
2019-03-02T10:19:39.069Z,132.00
2019-03-02T10:20:42.498Z,140.00
2019-03-02T10:21:39.020Z,140.00
2019-03-02T10:22:38.986Z,136.00
2019-03-02T10:23:42.053Z,132.00
2019-03-02T10:24:39.763Z,128.00
2019-03-02T10:25:38.956Z,124.00
2019-03-02T10:26:39.831Z,120.00
2019-03-02T10:27:38.943Z,120.00
2019-03-02T10:28:38.837Z,124.00
2019-03-02T10:29:38.961Z,124.00
2019-03-02T10:30:39.329Z,128.00
2019-03-02T10:31:40.482Z,128.00
2019-03-02T10:32:38.738Z,132.00
2019-03-02T10:33:38.748Z,128.00
2019-03-02T10:34:41.935Z,128.00
2019-03-02T10:35:38.676Z,124.00
2019-03-02T10:36:38.805Z,116.00
2019-03-02T10:37:39.513Z,120.00
2019-03-02T10:38:38.604Z,124.00
2019-03-02T10:39:38.613Z,128.00
2019-03-02T10:40:41.607Z,128.00
2019-03-02T10:41:38.553Z,124.00
2019-03-02T10:42:39.462Z,116.00
2019-03-02T10:43:38.474Z,116.00
2019-03-02T10:44:38.769Z,120.00
2019-03-02T10:45:38.479Z,124.00
2019-03-02T10:46:38.638Z,144.00
2019-03-02T10:47:38.430Z,160.00
2019-03-02T10:48:38.349Z,148.00
2019-03-02T10:49:38.326Z,140.00
2019-03-02T10:50:38.302Z,148.00
2019-03-02T10:51:38.383Z,156.00
2019-03-02T10:52:38.361Z,168.00
2019-03-02T10:53:38.238Z,168.00
2019-03-02T10:54:38.212Z,164.00
2019-03-02T10:55:38.188Z,160.00
2019-03-02T10:56:38.166Z,168.00
2019-03-02T10:57:38.202Z,168.00
2019-03-02T10:58:38.734Z,188.00
2019-03-02T10:59:38.085Z,204.00
2019-03-02T11:00:38.064Z,196.00
2019-03-02T11:01:39.880Z,192.00
2019-03-02T11:02:38.031Z,188.00
2019-03-02T11:03:37.990Z,192.00
2019-03-02T11:04:40.976Z,188.00
2019-03-02T11:05:37.943Z,184.00
2019-03-02T11:06:37.919Z,184.00
2019-03-02T11:07:37.894Z,184.00
2019-03-02T11:08:37.871Z,172.00
2019-03-02T11:09:39.743Z,164.00
2019-03-02T11:10:37.829Z,168.00
2019-03-02T11:11:37.807Z,180.00
2019-03-02T11:12:39.779Z,188.00
2019-03-02T11:13:37.754Z,196.00
2019-03-02T11:14:37.729Z,196.00
2019-03-02T11:15:39.731Z,192.00
2019-03-02T11:16:37.681Z,184.00
2019-03-02T11:17:39.363Z,184.00
2019-03-02T11:18:37.644Z,184.00
2019-03-02T11:19:37.612Z,176.00
2019-03-02T11:20:37.589Z,172.00
2019-03-02T11:21:37.563Z,172.00
2019-03-02T11:22:38.732Z,172.00
2019-03-02T11:23:37.516Z,168.00
2019-03-02T11:24:37.493Z,160.00
2019-03-02T11:25:37.470Z,148.00
2019-03-02T11:26:37.446Z,140.00
2019-03-02T11:27:37.423Z,136.00
2019-03-02T11:28:37.401Z,144.00
2019-03-02T11:29:37.376Z,148.00
2019-03-02T11:30:37.353Z,148.00
2019-03-02T11:31:37.327Z,152.00
2019-03-02T11:32:37.304Z,156.00
2019-03-02T11:33:37.283Z,156.00
2019-03-02T11:34:37.263Z,156.00
2019-03-02T11:35:38.546Z,156.00
2019-03-02T11:36:37.240Z,152.00
2019-03-02T11:37:37.188Z,152.00
2019-03-02T11:38:40.148Z,148.00
2019-03-02T11:39:37.140Z,144.00
2019-03-02T11:40:37.118Z,136.00
2019-03-02T11:41:37.093Z,136.00
2019-03-02T11:42:37.070Z,136.00
2019-03-02T11:43:37.073Z,136.00
2019-03-02T11:44:37.105Z,136.00
2019-03-02T11:45:38.403Z,132.00
2019-03-02T11:46:36.978Z,124.00
2019-03-02T11:47:37.349Z,128.00
2019-03-02T11:48:36.952Z,128.00
2019-03-02T11:49:38.486Z,124.00
2019-03-02T11:50:36.892Z,120.00
2019-03-02T11:51:36.887Z,120.00
2019-03-02T11:52:38.634Z,124.00
2019-03-02T11:53:36.821Z,124.00
2019-03-02T11:54:36.793Z,128.00
2019-03-02T11:55:36.764Z,128.00
2019-03-02T11:56:39.114Z,132.00
2019-03-02T11:57:36.723Z,128.00
2019-03-02T11:58:36.962Z,120.00
2019-03-02T11:59:37.561Z,116.00
2019-03-02T12:00:38.040Z,112.00
2019-03-02T12:01:36.625Z,112.00
2019-03-02T12:02:36.605Z,112.00
2019-03-02T12:03:39.038Z,116.00
2019-03-02T12:04:36.553Z,124.00
2019-03-02T12:05:36.532Z,132.00
2019-03-02T12:06:37.843Z,148.00
2019-03-02T12:07:36.485Z,156.00
2019-03-02T12:08:36.459Z,164.00
2019-03-02T12:09:36.439Z,172.00
2019-03-02T12:10:36.415Z,180.00
2019-03-02T12:11:36.426Z,196.00
2019-03-02T12:12:36.365Z,200.00
2019-03-02T12:13:36.343Z,204.00
2019-03-02T12:14:36.318Z,220.00
2019-03-02T12:15:36.305Z,236.00
2019-03-02T12:16:38.179Z,268.00
2019-03-02T12:17:40.647Z,296.00
2019-03-02T12:18:36.221Z,296.00
2019-03-02T12:19:36.206Z,304.00
2019-03-02T12:20:36.181Z,308.00
2019-03-02T12:21:36.152Z,320.00
2019-03-02T12:22:36.128Z,336.00
2019-03-02T12:23:37.662Z,356.00
2019-03-02T12:24:36.155Z,388.00
2019-03-02T12:25:36.549Z,468.00
2019-03-02T12:26:36.296Z,688.00
2019-03-02T12:27:36.943Z,844.00
2019-03-02T12:28:36.388Z,880.00
2019-03-02T12:29:36.001Z,836.00
2019-03-02T12:30:36.468Z,820.00
2019-03-02T12:31:36.380Z,848.00
2019-03-02T12:32:35.979Z,820.00
2019-03-02T12:33:35.912Z,796.00
2019-03-02T12:34:35.971Z,828.00
2019-03-02T12:35:40.383Z,844.00
2019-03-02T12:36:36.434Z,832.00
2019-03-02T12:37:37.277Z,892.00
2019-03-02T12:38:35.981Z,876.00
2019-03-02T12:39:35.742Z,864.00
2019-03-02T12:40:36.223Z,792.00
2019-03-02T12:41:35.714Z,736.00
2019-03-02T12:42:35.678Z,708.00
2019-03-02T12:43:35.663Z,696.00
2019-03-02T12:44:35.636Z,740.00
2019-03-02T12:45:35.602Z,820.00
2019-03-02T12:46:35.583Z,904.00
2019-03-02T12:47:35.556Z,940.00
2019-03-02T12:48:35.534Z,1132.00
2019-03-02T12:49:35.518Z,1088.00
2019-03-02T12:50:35.494Z,1152.00
2019-03-02T12:51:39.391Z,1164.00
2019-03-02T12:52:35.453Z,992.00
2019-03-02T12:53:35.840Z,1040.00
2019-03-02T12:54:39.274Z,1172.00
2019-03-02T12:55:35.383Z,1284.00
2019-03-02T12:56:35.888Z,1012.00